Time;durP1;ratioP1;P1;durP2;ratioP2;P2;SDS_P1;SDS_P2;PMS_P1;PMS_P2;Temp;Humidity;BMP_temperature;BMP_pressure;BME280_temperature;BME280_humidity;BME280_pressure;Samples;Min_cycle;Max_cycle;Signal;HPM_P1;HPM_P2
2024/01/25 00:01:02;;;;;;;202.60;79.97;;;;;;;7.02;nan;99381.03;5066444;28;20056;-68
2024/01/25 00:03:31;;;;;;;184.65;77.28;;;;;;;7.16;nan;99387.53;5067050;28;20043;-67
2024/01/25 00:06:00;;;;;;;194.48;78.95;;;;;;;7.00;nan;99387.41;5060411;28;20052;-68
2024/01/25 00:08:30;;;;;;;195.38;76.38;;;;;;;7.06;nan;99398.16;5065416;28;20041;-68
2024/01/25 00:11:00;;;;;;;189.00;77.50;;;;;;;7.10;nan;99401.31;5062053;28;20063;-66
2024/01/25 00:13:29;;;;;;;203.93;80.50;;;;;;;7.02;nan;99399.44;5066012;28;20106;-68
2024/01/25 00:15:58;;;;;;;191.85;79.28;;;;;;;6.92;nan;99406.59;5066207;28;20162;-68
2024/01/25 00:18:29;;;;;;;193.43;80.63;;;;;;;6.95;nan;99403.66;5065710;28;20048;-68
2024/01/25 00:20:59;;;;;;;195.55;79.53;;;;;;;6.98;nan;99406.00;5065763;28;20552;-68
2024/01/25 00:23:28;;;;;;;195.77;82.85;;;;;;;6.95;nan;99405.50;5064329;28;20059;-68
2024/01/25 00:25:59;;;;;;;210.02;83.60;;;;;;;7.14;nan;99402.66;5064536;28;20044;-67
2024/01/25 00:28:29;;;;;;;186.43;81.28;;;;;;;6.92;nan;99411.88;5065645;28;20369;-68
2024/01/25 00:30:58;;;;;;;182.18;77.00;;;;;;;6.94;nan;99417.81;5047537;28;20143;-68
2024/01/25 00:33:27;;;;;;;190.80;80.40;;;;;;;6.74;nan;99425.03;5052969;28;20057;-68
2024/01/25 00:35:57;;;;;;;199.35;82.72;;;;;;;6.61;nan;99434.28;5052724;28;20361;-68
2024/01/25 00:38:27;;;;;;;193.27;80.97;;;;;;;6.68;nan;99443.25;5065296;28;20094;-68
2024/01/25 00:40:56;;;;;;;194.43;79.18;;;;;;;6.58;nan;99442.47;5064114;28;20059;-68
2024/01/25 00:43:26;;;;;;;206.50;81.35;;;;;;;6.71;nan;99450.84;5064805;28;20454;-67
2024/01/25 00:45:56;;;;;;;182.93;76.18;;;;;;;6.85;nan;99447.69;5063434;28;20101;-67
2024/01/25 00:48:26;;;;;;;179.00;73.93;;;;;;;6.74;nan;99453.16;5064997;28;20050;-68
2024/01/25 00:50:55;;;;;;;179.20;73.05;;;;;;;6.75;nan;99446.94;5065944;28;20072;-68
2024/01/25 00:53:25;;;;;;;180.30;74.22;;;;;;;6.89;nan;99446.41;5065186;28;20055;-68
2024/01/25 00:55:54;;;;;;;161.32;65.70;;;;;;;6.83;nan;99446.16;5065576;28;20767;-67
2024/01/25 00:58:24;;;;;;;169.60;67.97;;;;;;;6.85;nan;99445.06;5055422;28;20518;-67
2024/01/25 01:00:54;;;;;;;158.20;63.95;;;;;;;6.95;nan;99453.69;5063785;28;20076;-67
2024/01/25 01:03:24;;;;;;;144.05;60.28;;;;;;;6.80;nan;99454.38;5061858;28;20321;-68
2024/01/25 01:05:53;;;;;;;130.07;57.42;;;;;;;6.76;nan;99461.75;5059281;28;20484;-67
2024/01/25 01:08:23;;;;;;;137.95;58.80;;;;;;;6.88;nan;99471.06;5064782;28;20235;-67
2024/01/25 01:10:52;;;;;;;152.15;62.38;;;;;;;6.90;nan;99465.66;5065217;28;20118;-66
2024/01/25 01:13:22;;;;;;;144.32;58.97;;;;;;;7.00;nan;99455.88;5063490;28;20052;-66
2024/01/25 01:15:51;;;;;;;121.72;55.28;;;;;;;6.96;nan;99444.81;5062397;28;20050;-66
2024/01/25 01:18:20;;;;;;;126.32;53.20;;;;;;;7.07;nan;99454.31;5062358;28;20044;-67
2024/01/25 01:20:50;;;;;;;133.30;56.47;;;;;;;6.96;nan;99465.88;5063416;28;20059;-68
2024/01/25 01:23:19;;;;;;;116.68;52.40;;;;;;;6.87;nan;99466.78;5062957;28;20065;-68
2024/01/25 01:25:48;;;;;;;117.00;51.00;;;;;;;7.07;nan;99468.31;5061983;28;20048;-67
2024/01/25 01:28:18;;;;;;;109.28;46.47;;;;;;;6.94;nan;99481.03;5044938;28;20051;-67
2024/01/25 01:30:47;;;;;;;106.10;46.92;;;;;;;6.88;nan;99486.88;5059236;28;20044;-68
2024/01/25 01:33:17;;;;;;;92.50;39.97;;;;;;;6.98;nan;99492.06;5062535;28;20048;-67
2024/01/25 01:35:46;;;;;;;86.38;40.60;;;;;;;6.99;nan;99494.53;5061177;28;20479;-68
2024/01/25 01:38:15;;;;;;;94.28;40.03;;;;;;;6.90;nan;99482.28;5064112;28;20684;-68
2024/01/25 01:40:46;;;;;;;92.47;39.75;;;;;;;6.94;nan;99486.28;5047612;28;20064;-67
2024/01/25 01:43:23;;;;;;;86.32;37.63;;;;;;;7.10;nan;99490.88;5063936;28;20751;-66
2024/01/25 01:45:53;;;;;;;91.82;38.38;;;;;;;6.94;nan;99483.66;5046809;28;20049;-67
2024/01/25 01:48:23;;;;;;;89.53;37.80;;;;;;;6.75;nan;99479.34;5055463;28;20148;-67
2024/01/25 01:50:52;;;;;;;86.68;37.42;;;;;;;6.68;nan;99480.91;5063783;28;20064;-67
2024/01/25 01:53:22;;;;;;;95.97;38.42;;;;;;;6.50;nan;99485.34;5046469;28;20050;-66
2024/01/25 01:55:52;;;;;;;90.68;40.15;;;;;;;6.74;nan;99484.75;5064701;28;20052;-66
2024/01/25 01:58:24;;;;;;;89.90;37.72;;;;;;;6.63;nan;99482.34;5063665;28;20052;-66
2024/01/25 02:00:56;;;;;;;91.13;37.70;;;;;;;6.65;nan;99493.53;5064668;28;20052;-67
2024/01/25 02:03:25;;;;;;;101.00;37.60;;;;;;;6.74;nan;99505.81;5063877;28;20048;-67
2024/01/25 02:05:55;;;;;;;88.32;37.25;;;;;;;6.63;nan;99514.75;5064532;28;20312;-67
2024/01/25 02:08:26;;;;;;;97.53;38.65;;;;;;;6.58;nan;99529.31;5063764;28;20380;-67
2024/01/25 02:10:56;;;;;;;90.28;36.92;;;;;;;6.81;nan;99537.66;5064324;28;20041;-67
2024/01/25 02:13:26;;;;;;;100.72;39.22;;;;;;;6.56;nan;99533.88;5063458;28;20125;-67
2024/01/25 02:15:55;;;;;;;100.47;38.88;;;;;;;6.53;nan;99526.31;5063218;28;20048;-66
2024/01/25 02:18:25;;;;;;;104.78;38.53;;;;;;;6.72;nan;99542.00;5063813;28;20087;-67
2024/01/25 02:20:55;;;;;;;106.95;39.20;;;;;;;6.58;nan;99543.31;5066098;28;20517;-67
2024/01/25 02:23:25;;;;;;;108.50;38.03;;;;;;;6.66;nan;99542.56;5066886;28;20045;-67
2024/01/25 02:25:54;;;;;;;98.82;37.88;;;;;;;6.60;nan;99533.44;5066658;28;20438;-67
2024/01/25 02:28:23;;;;;;;99.35;37.58;;;;;;;6.55;nan;99534.88;5067190;28;20060;-67
2024/01/25 02:30:52;;;;;;;101.25;38.30;;;;;;;6.53;nan;99542.09;5066906;28;20055;-67
2024/01/25 02:33:22;;;;;;;104.38;37.08;;;;;;;6.60;nan;99548.41;5066433;28;20075;-67
2024/01/25 02:35:51;;;;;;;97.53;38.63;;;;;;;6.54;nan;99559.53;5066080;28;20563;-67
2024/01/25 02:38:20;;;;;;;96.75;37.45;;;;;;;6.49;nan;99553.88;5065721;28;20041;-67
2024/01/25 02:40:49;;;;;;;106.53;37.35;;;;;;;6.36;nan;99563.91;5065035;28;20044;-67
2024/01/25 02:43:19;;;;;;;98.70;37.85;;;;;;;6.51;nan;99568.53;5064673;28;20562;-67
2024/01/25 02:45:49;;;;;;;97.45;37.78;;;;;;;6.41;nan;99574.84;5064946;28;20171;-67
2024/01/25 02:48:18;;;;;;;99.57;38.33;;;;;;;6.69;nan;99585.22;5066894;28;20124;-67
2024/01/25 02:50:47;;;;;;;99.72;37.10;;;;;;;6.74;nan;99582.97;5051008;28;20456;-67
2024/01/25 02:53:17;;;;;;;101.55;39.63;;;;;;;6.61;nan;99585.13;5052822;28;20048;-66
2024/01/25 02:55:46;;;;;;;101.53;39.97;;;;;;;6.68;nan;99578.28;5071133;28;20036;-67
2024/01/25 02:58:16;;;;;;;109.95;41.47;;;;;;;6.74;nan;99577.72;5067799;28;20079;-67
2024/01/25 03:00:46;;;;;;;106.97;39.40;;;;;;;6.67;nan;99581.09;5055319;28;20045;-67
2024/01/25 03:03:16;;;;;;;109.57;41.13;;;;;;;6.80;nan;99581.56;5053185;28;20049;-67
2024/01/25 03:05:46;;;;;;;120.65;42.08;;;;;;;6.70;nan;99578.97;5027732;28;20049;-66
2024/01/25 03:08:15;;;;;;;116.53;42.28;;;;;;;6.64;nan;99576.09;5036774;28;20137;-67
2024/01/25 03:10:44;;;;;;;96.68;38.25;;;;;;;6.58;nan;99567.00;5076281;28;20041;-64
2024/01/25 03:13:13;;;;;;;102.85;41.70;;;;;;;6.64;nan;99576.91;5052717;28;20383;-67
2024/01/25 03:15:44;;;;;;;95.82;35.85;;;;;;;6.61;nan;99574.59;5062101;28;20087;-66
2024/01/25 03:18:14;;;;;;;105.47;37.85;;;;;;;6.70;nan;99586.03;5045622;28;20056;-66
2024/01/25 03:20:43;;;;;;;99.85;36.88;;;;;;;6.70;nan;99580.78;5032756;28;20048;-66
2024/01/25 03:23:13;;;;;;;100.15;38.60;;;;;;;6.70;nan;99580.78;5057545;28;20045;-66
2024/01/25 03:25:43;;;;;;;98.80;39.83;;;;;;;6.70;nan;99588.69;5052627;28;20384;-65
2024/01/25 03:28:14;;;;;;;95.32;38.58;;;;;;;6.88;nan;99589.56;5053786;28;20055;-67
2024/01/25 03:30:45;;;;;;;86.97;37.33;;;;;;;6.89;nan;99593.84;5064051;28;20048;-67
2024/01/25 03:33:15;;;;;;;90.25;37.70;;;;;;;6.90;nan;99603.41;5045586;28;20455;-67
2024/01/25 03:35:45;;;;;;;108.15;40.75;;;;;;;6.88;nan;99599.25;5064071;28;20601;-68
2024/01/25 03:38:14;;;;;;;108.25;40.10;;;;;;;6.75;nan;99592.53;5063040;28;20063;-67
2024/01/25 03:40:44;;;;;;;107.57;39.60;;;;;;;6.97;nan;99599.22;5062642;28;20044;-68
2024/01/25 03:43:13;;;;;;;102.38;40.22;;;;;;;7.10;nan;99615.47;5047656;28;20051;-67
2024/01/25 03:45:47;;;;;;;100.35;38.95;;;;;;;7.04;nan;99610.78;5046142;28;20562;-69
2024/01/25 03:48:17;;;;;;;100.13;40.30;;;;;;;7.05;nan;99615.09;5044650;28;20170;-69
2024/01/25 03:50:46;;;;;;;100.88;38.95;;;;;;;6.90;nan;99619.22;5062732;28;20075;-68
2024/01/25 03:53:15;;;;;;;119.47;42.88;;;;;;;7.04;nan;99628.41;5062238;28;20048;-68
2024/01/25 03:55:45;;;;;;;105.50;42.03;;;;;;;7.18;nan;99634.00;5061886;28;20048;-68
2024/01/25 03:58:15;;;;;;;106.70;42.70;;;;;;;7.22;nan;99639.81;5060124;28;20040;-68
2024/01/25 04:00:44;;;;;;;103.00;41.38;;;;;;;7.15;nan;99633.47;5061669;28;20058;-68
2024/01/25 04:03:14;;;;;;;108.50;42.25;;;;;;;7.05;nan;99633.53;5062289;28;20051;-67
2024/01/25 04:05:44;;;;;;;104.55;41.95;;;;;;;7.15;nan;99633.47;5061169;28;20045;-68
2024/01/25 04:08:13;;;;;;;109.25;43.00;;;;;;;6.98;nan;99627.22;5061235;28;20036;-69
2024/01/25 04:10:45;;;;;;;109.93;42.85;;;;;;;6.92;nan;99624.31;5064732;28;20055;-68
2024/01/25 04:13:15;;;;;;;109.97;42.78;;;;;;;7.16;nan;99633.34;5063812;28;20044;-67
2024/01/25 04:15:44;;;;;;;115.50;41.47;;;;;;;7.07;nan;99636.84;5069840;28;20179;-67
2024/01/25 04:18:14;;;;;;;103.60;41.45;;;;;;;7.28;nan;99633.13;5066442;28;20044;-68
2024/01/25 04:20:44;;;;;;;102.25;41.63;;;;;;;7.26;nan;99629.81;5064316;28;20075;-68
2024/01/25 04:23:13;;;;;;;102.28;41.10;;;;;;;7.38;nan;99631.25;5063873;28;20056;-68
2024/01/25 04:25:42;;;;;;;98.10;38.47;;;;;;;7.40;nan;99651.19;5051704;28;21827;-67
2024/01/25 04:28:12;;;;;;;101.30;40.28;;;;;;;7.45;nan;99650.75;5062549;28;20063;-67
2024/01/25 04:30:41;;;;;;;90.03;37.20;;;;;;;7.32;nan;99645.00;5047609;28;20130;-68
2024/01/25 04:33:10;;;;;;;89.38;36.80;;;;;;;7.29;nan;99643.53;5040789;28;20061;-68
2024/01/25 04:35:40;;;;;;;81.50;33.65;;;;;;;7.19;nan;99640.94;5020296;28;20048;-67
2024/01/25 04:38:09;;;;;;;81.57;34.72;;;;;;;7.38;nan;99660.25;5025266;28;20140;-67
2024/01/25 04:40:39;;;;;;;86.22;35.30;;;;;;;7.40;nan;99661.75;5043329;28;20045;-69
2024/01/25 04:43:08;;;;;;;80.03;33.85;;;;;;;7.19;nan;99658.53;5042877;28;20057;-67
2024/01/25 04:45:38;;;;;;;76.38;32.90;;;;;;;7.39;nan;99656.63;5043331;28;20056;-67
2024/01/25 04:48:07;;;;;;;71.40;32.90;;;;;;;7.61;nan;99669.38;5043440;28;20130;-67
2024/01/25 04:50:38;;;;;;;73.00;31.67;;;;;;;7.38;nan;99671.63;5036108;28;20549;-67
2024/01/25 04:53:11;;;;;;;70.00;32.45;;;;;;;7.43;nan;99671.16;5034711;28;20384;-67
2024/01/25 04:55:40;;;;;;;74.97;33.85;;;;;;;7.56;nan;99676.91;5037207;28;20045;-70
2024/01/25 04:58:11;;;;;;;75.88;33.65;;;;;;;7.35;nan;99694.78;4999715;28;20068;-70
2024/01/25 05:00:40;;;;;;;84.60;33.35;;;;;;;7.30;nan;99695.25;5024746;28;20045;-70
2024/01/25 05:03:12;;;;;;;81.60;33.67;;;;;;;7.28;nan;99691.09;5004050;28;20124;-69
2024/01/25 05:05:42;;;;;;;68.88;32.42;;;;;;;7.35;nan;99697.41;5038339;28;20052;-70
2024/01/25 05:08:11;;;;;;;72.65;32.65;;;;;;;7.44;nan;99691.25;5024353;28;20054;-69
2024/01/25 05:10:40;;;;;;;68.43;31.10;;;;;;;7.40;nan;99684.63;5036520;28;20049;-70
2024/01/25 05:13:10;;;;;;;73.80;33.00;;;;;;;7.42;nan;99690.59;5033041;28;20056;-70
2024/01/25 05:15:39;;;;;;;67.38;32.25;;;;;;;7.81;nan;99696.41;5024433;28;20049;-70
2024/01/25 05:18:08;;;;;;;70.07;31.20;;;;;;;7.75;nan;99697.84;5023859;28;20048;-70
2024/01/25 05:20:38;;;;;;;73.82;34.67;;;;;;;7.91;nan;99695.38;5020363;28;20054;-70
2024/01/25 05:23:08;;;;;;;74.20;33.70;;;;;;;7.73;nan;99691.06;5017480;28;20054;-69
2024/01/25 05:25:37;;;;;;;78.95;34.58;;;;;;;7.83;nan;99682.13;5014939;28;20049;-70
2024/01/25 05:28:06;;;;;;;70.45;33.35;;;;;;;8.04;nan;99680.00;5009670;28;20052;-70
2024/01/25 05:30:36;;;;;;;68.70;33.05;;;;;;;8.01;nan;99684.75;5027618;28;20049;-70
2024/01/25 05:33:05;;;;;;;65.65;31.00;;;;;;;8.05;nan;99689.53;5010560;28;20054;-70
2024/01/25 05:35:35;;;;;;;64.70;31.90;;;;;;;8.02;nan;99702.22;5028120;28;20465;-72
2024/01/25 05:38:04;;;;;;;69.35;31.25;;;;;;;8.20;nan;99705.66;5031270;28;20060;-71
2024/01/25 05:40:34;;;;;;;66.90;32.25;;;;;;;8.18;nan;99709.47;5043553;28;20059;-72
2024/01/25 05:43:04;;;;;;;69.03;31.02;;;;;;;8.12;nan;99711.72;5043368;28;20056;-71
2024/01/25 05:45:33;;;;;;;72.97;32.90;;;;;;;8.00;nan;99704.19;5043825;28;20068;-71
2024/01/25 05:48:03;;;;;;;66.47;30.95;;;;;;;8.08;nan;99705.09;5021112;28;20051;-71
2024/01/25 05:50:33;;;;;;;70.18;33.05;;;;;;;8.24;nan;99708.81;5008741;28;20060;-71
2024/01/25 05:53:02;;;;;;;72.43;32.20;;;;;;;8.37;nan;99704.00;5026278;28;20111;-71
2024/01/25 05:55:31;;;;;;;68.88;32.28;;;;;;;8.29;nan;99707.44;5013162;28;20318;-70
2024/01/25 05:58:01;;;;;;;87.90;35.22;;;;;;;8.45;nan;99704.91;5048709;28;20059;-71
2024/01/25 06:00:30;;;;;;;74.30;34.15;;;;;;;8.42;nan;99704.38;5048194;28;20060;-69
2024/01/25 06:02:59;;;;;;;74.10;34.30;;;;;;;8.34;nan;99701.69;5047768;28;20041;-71
2024/01/25 06:05:29;;;;;;;76.78;36.60;;;;;;;8.66;nan;99688.72;5047205;28;20381;-71
2024/01/25 06:07:58;;;;;;;90.15;39.80;;;;;;;8.87;nan;99681.22;5031418;28;20045;-71
2024/01/25 06:10:28;;;;;;;80.78;37.75;;;;;;;8.95;nan;99675.16;5030198;28;20053;-70
2024/01/25 06:12:57;;;;;;;72.70;34.63;;;;;;;9.02;nan;99671.75;5041058;28;20057;-70
2024/01/25 06:15:27;;;;;;;71.93;35.67;;;;;;;8.84;nan;99670.16;5027385;28;20053;-70
2024/01/25 06:17:56;;;;;;;72.30;34.40;;;;;;;9.16;nan;99659.72;5025502;28;20049;-71
2024/01/25 06:20:25;;;;;;;66.00;32.20;;;;;;;9.14;nan;99667.00;5027394;28;20045;-70
2024/01/25 06:22:55;;;;;;;60.65;32.08;;;;;;;9.24;nan;99658.94;5019756;28;20057;-70
2024/01/25 06:25:24;;;;;;;67.88;32.97;;;;;;;9.34;nan;99647.22;5010159;28;20053;-70
2024/01/25 06:27:53;;;;;;;64.35;30.67;;;;;;;9.64;nan;99637.03;5032760;28;20055;-70
2024/01/25 06:30:22;;;;;;;66.97;32.40;;;;;;;9.76;nan;99638.38;5031090;28;20056;-70
2024/01/25 06:32:52;;;;;;;76.85;33.42;;;;;;;9.33;nan;99628.91;5047438;28;20065;-70
2024/01/25 06:35:21;;;;;;;65.55;33.05;;;;;;;9.62;nan;99634.56;5047333;28;20118;-70
2024/01/25 06:37:51;;;;;;;64.75;33.17;;;;;;;9.83;nan;99645.47;5043813;28;20055;-71
2024/01/25 06:40:20;;;;;;;72.55;33.65;;;;;;;9.79;nan;99638.88;5046908;28;20041;-70
2024/01/25 06:42:49;;;;;;;65.00;32.75;;;;;;;10.02;nan;99627.63;5046857;28;20348;-70
2024/01/25 06:45:19;;;;;;;62.67;32.20;;;;;;;10.08;nan;99627.81;5046764;28;20055;-68
2024/01/25 06:47:48;;;;;;;60.53;30.83;;;;;;;10.50;nan;99611.69;5044214;28;20044;-68
2024/01/25 06:50:17;;;;;;;57.47;30.27;;;;;;;10.74;nan;99597.56;5053232;28;20075;-67
2024/01/25 06:52:48;;;;;;;58.25;32.03;;;;;;;10.91;nan;99591.19;5042943;28;20040;-67
2024/01/25 06:55:17;;;;;;;58.78;29.15;;;;;;;10.78;nan;99598.88;5045638;28;20090;-69
2024/01/25 06:57:46;;;;;;;62.53;29.92;;;;;;;11.11;nan;99591.56;5054444;28;20069;-70
2024/01/25 07:00:16;;;;;;;57.22;29.33;;;;;;;11.24;nan;99597.16;5028015;28;20051;-69
2024/01/25 07:02:45;;;;;;;59.83;30.35;;;;;;;11.27;nan;99604.75;5027678;28;20053;-68
2024/01/25 07:05:15;;;;;;;62.05;30.55;;;;;;;11.53;nan;99599.94;5046566;28;20059;-69
2024/01/25 07:07:44;;;;;;;60.25;31.63;;;;;;;11.56;nan;99596.09;5066446;28;20136;-69
2024/01/25 07:10:14;;;;;;;58.95;32.67;;;;;;;11.98;nan;99585.84;5065834;28;20102;-69
2024/01/25 07:12:43;;;;;;;58.70;30.23;;;;;;;12.21;nan;99585.81;5066320;28;20133;-69
2024/01/25 07:15:12;;;;;;;62.28;32.08;;;;;;;11.96;nan;99587.03;5047966;28;20056;-68
2024/01/25 07:17:42;;;;;;;56.33;30.40;;;;;;;11.75;nan;99576.25;5066573;28;20775;-69
2024/01/25 07:20:11;;;;;;;62.13;30.20;;;;;;;11.82;nan;99582.50;5066792;28;20052;-69
2024/01/25 07:22:41;;;;;;;54.33;30.08;;;;;;;12.04;nan;99577.16;5066613;28;20063;-69
2024/01/25 07:25:11;;;;;;;57.33;31.75;;;;;;;11.43;nan;99582.59;5048853;28;20825;-69
2024/01/25 07:27:43;;;;;;;57.28;31.00;;;;;;;11.70;nan;99579.41;5066104;28;20044;-69
2024/01/25 07:30:14;;;;;;;58.55;32.97;;;;;;;12.27;nan;99574.44;5064394;28;20496;-69
2024/01/25 07:32:43;;;;;;;57.90;31.48;;;;;;;12.48;nan;99571.88;5029631;28;20088;-70
2024/01/25 07:35:13;;;;;;;58.08;30.95;;;;;;;13.09;nan;99572.47;5039352;28;20080;-69
2024/01/25 07:37:42;;;;;;;63.50;32.60;;;;;;;13.29;nan;99565.56;5045913;28;20074;-69
2024/01/25 07:40:12;;;;;;;62.65;32.53;;;;;;;13.16;nan;99568.06;5046297;28;20103;-70
2024/01/25 07:42:41;;;;;;;62.65;32.90;;;;;;;12.69;nan;99562.38;5047051;28;20136;-69
2024/01/25 07:45:13;;;;;;;57.05;31.17;;;;;;;12.58;nan;99556.50;5046323;28;20081;-70
2024/01/25 07:47:43;;;;;;;55.33;32.53;;;;;;;12.49;nan;99559.44;5043495;28;20071;-69
2024/01/25 07:50:14;;;;;;;59.72;33.08;;;;;;;12.30;nan;99560.81;5049172;28;20484;-69
2024/01/25 07:52:43;;;;;;;61.60;32.55;;;;;;;12.93;nan;99560.22;5066679;28;20052;-69
2024/01/25 07:55:12;;;;;;;60.55;33.55;;;;;;;13.11;nan;99566.97;5055261;28;20222;-69
2024/01/25 07:57:42;;;;;;;60.90;32.70;;;;;;;12.92;nan;99571.06;5026408;28;20169;-69
2024/01/25 08:00:12;;;;;;;58.22;32.30;;;;;;;13.06;nan;99567.50;5028964;28;20734;-69
2024/01/25 08:02:41;;;;;;;59.72;34.00;;;;;;;13.23;nan;99560.19;5029261;28;20045;-70
2024/01/25 08:05:11;;;;;;;63.13;34.10;;;;;;;13.23;nan;99560.19;5045586;28;20098;-69
2024/01/25 08:07:41;;;;;;;65.25;34.33;;;;;;;12.95;nan;99565.34;5062304;28;20551;-69
2024/01/25 08:10:10;;;;;;;65.20;35.10;;;;;;;13.10;nan;99554.69;5048041;28;20053;-69
2024/01/25 08:12:39;;;;;;;62.40;36.30;;;;;;;13.46;nan;99551.00;5048545;28;20044;-69
2024/01/25 08:15:15;;;;;;;72.28;36.83;;;;;;;13.25;nan;99545.66;5045687;28;20048;-69
2024/01/25 08:17:45;;;;;;;67.97;36.03;;;;;;;13.14;nan;99542.69;5046099;28;20052;-69
2024/01/25 08:20:14;;;;;;;71.22;37.47;;;;;;;13.22;nan;99540.72;5028182;28;20068;-69
2024/01/25 08:22:44;;;;;;;73.25;39.25;;;;;;;13.34;nan;99536.56;5045802;28;20114;-69
2024/01/25 08:25:13;;;;;;;96.38;46.10;;;;;;;13.58;nan;99534.53;5045367;28;20118;-69
2024/01/25 08:27:43;;;;;;;101.60;50.60;;;;;;;13.55;nan;99534.88;5062730;28;20076;-69
2024/01/25 08:30:12;;;;;;;98.15;50.60;;;;;;;13.62;nan;99531.28;5064948;28;20123;-69
2024/01/25 08:32:42;;;;;;;110.10;52.05;;;;;;;13.71;nan;99524.81;5065629;28;20056;-69
2024/01/25 08:35:11;;;;;;;102.93;52.95;;;;;;;13.76;nan;99526.91;5064319;28;20060;-69
2024/01/25 08:37:40;;;;;;;114.97;56.88;;;;;;;13.75;nan;99530.59;5046130;28;20057;-69
2024/01/25 08:40:10;;;;;;;123.95;58.17;;;;;;;13.58;nan;99532.69;5045010;28;20132;-69
2024/01/25 08:42:40;;;;;;;129.00;60.10;;;;;;;13.56;nan;99531.22;5045989;28;20152;-69
2024/01/25 08:45:10;;;;;;;149.35;68.07;;;;;;;13.47;nan;99528.69;5054189;28;20053;-70
2024/01/25 08:47:41;;;;;;;141.70;68.70;;;;;;;13.56;nan;99525.91;5025313;28;20151;-70
2024/01/25 08:50:12;;;;;;;179.27;77.68;;;;;;;13.60;nan;99522.66;5065127;28;20055;-69
2024/01/25 08:52:42;;;;;;;192.70;92.38;;;;;;;13.57;nan;99515.06;5065980;28;20048;-69
2024/01/25 08:55:11;;;;;;;208.98;96.72;;;;;;;13.70;nan;99509.03;5047055;28;20058;-69
2024/01/25 08:57:40;;;;;;;224.27;102.78;;;;;;;13.59;nan;99505.03;5055437;28;20044;-69
2024/01/25 09:00:10;;;;;;;238.25;107.30;;;;;;;13.79;nan;99511.38;5065222;28;20055;-69
2024/01/25 09:02:40;;;;;;;244.93;109.95;;;;;;;13.76;nan;99495.75;5065760;28;20055;-69
2024/01/25 09:05:09;;;;;;;248.57;110.40;;;;;;;13.71;nan;99489.38;5046506;28;20063;-69
2024/01/25 09:07:39;;;;;;;258.05;113.03;;;;;;;13.42;nan;99477.88;5045548;28;20040;-69
2024/01/25 09:10:09;;;;;;;242.45;111.18;;;;;;;13.41;nan;99484.22;5044203;28;20785;-69
2024/01/25 09:12:39;;;;;;;239.75;113.07;;;;;;;13.36;nan;99483.16;5045039;28;20055;-69
2024/01/25 09:15:09;;;;;;;264.58;116.15;;;;;;;13.30;nan;99478.59;5019460;28;20098;-69
2024/01/25 09:17:38;;;;;;;271.98;123.65;;;;;;;13.15;nan;99481.31;5052690;28;20357;-69
2024/01/25 09:20:08;;;;;;;282.67;123.40;;;;;;;13.34;nan;99471.88;5061002;28;20048;-69
2024/01/25 09:22:38;;;;;;;294.25;126.90;;;;;;;13.33;nan;99484.34;5043898;28;20119;-69
2024/01/25 09:25:07;;;;;;;285.60;126.10;;;;;;;13.21;nan;99485.88;5023169;28;20066;-69
2024/01/25 09:27:38;;;;;;;282.15;127.38;;;;;;;13.20;nan;99491.38;5039345;28;20053;-69
2024/01/25 09:30:08;;;;;;;278.60;127.97;;;;;;;13.09;nan;99482.06;5046211;28;20048;-69
2024/01/25 09:32:37;;;;;;;286.80;127.32;;;;;;;12.97;nan;99494.19;5051463;28;20134;-69
2024/01/25 09:35:07;;;;;;;297.15;128.23;;;;;;;12.95;nan;99486.41;5026258;28;20052;-69
2024/01/25 09:37:37;;;;;;;286.13;126.38;;;;;;;13.08;nan;99491.03;5036199;28;20122;-69
2024/01/25 09:40:08;;;;;;;274.63;123.72;;;;;;;13.12;nan;99488.84;5046967;28;20048;-69
2024/01/25 09:42:37;;;;;;;254.32;115.13;;;;;;;13.00;nan;99469.91;5032688;28;20119;-69
2024/01/25 09:45:08;;;;;;;268.10;118.85;;;;;;;13.01;nan;99474.22;5035907;28;20049;-69
2024/01/25 09:47:37;;;;;;;261.98;119.03;;;;;;;13.01;nan;99479.53;5039237;28;20469;-69
2024/01/25 09:50:08;;;;;;;266.42;117.45;;;;;;;12.99;nan;99478.88;5043993;28;20049;-69
2024/01/25 09:52:39;;;;;;;246.50;113.57;;;;;;;13.01;nan;99476.88;5044752;28;20045;-70
2024/01/25 09:55:13;;;;;;;256.00;110.63;;;;;;;12.97;nan;99475.56;5044227;28;20045;-70
2024/01/25 09:57:46;;;;;;;235.52;107.18;;;;;;;12.98;nan;99471.91;5039734;28;20056;-69
2024/01/25 10:00:17;;;;;;;207.48;92.45;;;;;;;12.94;nan;99463.50;5027567;28;20072;-69
2024/01/25 10:02:50;;;;;;;225.13;97.15;;;;;;;12.79;nan;99464.56;5027329;28;20052;-69
2024/01/25 10:05:20;;;;;;;210.25;94.70;;;;;;;12.76;nan;99464.91;5043379;28;20041;-69
2024/01/25 10:07:49;;;;;;;223.40;96.70;;;;;;;12.82;nan;99464.19;5050786;28;20149;-69
2024/01/25 10:10:18;;;;;;;203.70;90.00;;;;;;;12.61;nan;99452.47;5034255;28;20163;-69
2024/01/25 10:12:47;;;;;;;216.25;95.55;;;;;;;12.75;nan;99450.78;5044231;28;20377;-69
2024/01/25 10:15:17;;;;;;;217.25;98.63;;;;;;;12.56;nan;99446.94;5042536;28;20514;-69
2024/01/25 10:17:46;;;;;;;223.13;101.53;;;;;;;12.45;nan;99447.41;5044160;28;20052;-69
2024/01/25 10:20:34;;;;;;;226.80;102.63;;;;;;;12.38;nan;99443.84;5043626;28;20145;-70
2024/01/25 10:23:04;;;;;;;226.63;106.38;;;;;;;12.44;nan;99460.84;5043496;28;20064;-69
2024/01/25 10:25:38;;;;;;;235.98;109.68;;;;;;;12.42;nan;99449.59;5046143;28;20045;-69
2024/01/25 10:28:07;;;;;;;235.07;110.97;;;;;;;12.43;nan;99451.25;5062959;28;20052;-68
2024/01/25 10:30:37;;;;;;;228.70;109.53;;;;;;;12.48;nan;99457.63;5063756;28;20056;-69
2024/01/25 10:33:10;;;;;;;247.98;109.25;;;;;;;12.43;nan;99454.75;5063751;28;20052;-69
2024/01/25 10:35:45;;;;;;;242.65;110.95;;;;;;;12.52;nan;99455.47;5061136;28;20053;-69
2024/01/25 10:38:15;;;;;;;243.70;109.63;;;;;;;12.37;nan;99458.13;5043902;28;20045;-69
2024/01/25 10:40:46;;;;;;;245.60;110.82;;;;;;;12.28;nan;99469.88;5047309;28;20159;-69
2024/01/25 10:43:16;;;;;;;239.38;110.57;;;;;;;12.28;nan;99464.56;5047563;28;20073;-69
2024/01/25 10:45:46;;;;;;;235.82;108.78;;;;;;;12.26;nan;99479.03;5053466;28;20044;-69
2024/01/25 10:48:16;;;;;;;260.27;117.28;;;;;;;12.26;nan;99476.38;5063908;28;20873;-69
2024/01/25 10:50:46;;;;;;;242.80;111.45;;;;;;;12.37;nan;99481.22;5067057;28;20052;-69
2024/01/25 10:53:17;;;;;;;217.40;105.10;;;;;;;12.25;nan;99483.53;5067420;28;20060;-69
2024/01/25 10:55:47;;;;;;;239.15;107.65;;;;;;;12.08;nan;99484.72;5063642;28;20112;-69
2024/01/25 10:58:17;;;;;;;235.65;103.57;;;;;;;12.10;nan;99480.03;5047501;28;20048;-69
2024/01/25 11:00:55;;;;;;;223.27;103.65;;;;;;;12.16;nan;99479.31;5029303;28;20049;-69
2024/01/25 11:03:30;;;;;;;229.13;104.18;;;;;;;12.12;nan;99467.41;5046968;28;20481;-70
2024/01/25 11:06:10;;;;;;;223.73;102.63;;;;;;;12.08;nan;99464.28;5047430;28;20060;-69
2024/01/25 11:08:41;;;;;;;220.88;104.03;;;;;;;12.08;nan;99444.88;5064100;28;20037;-70
2024/01/25 11:11:15;;;;;;;234.73;104.43;;;;;;;12.02;nan;99445.63;5066490;28;20380;-69
2024/01/25 11:13:44;;;;;;;236.38;106.20;;;;;;;11.97;nan;99443.50;5067188;28;20044;-69
2024/01/25 11:16:19;;;;;;;248.10;108.03;;;;;;;11.88;nan;99449.09;5059184;28;20048;-69
2024/01/25 11:18:55;;;;;;;234.40;102.65;;;;;;;11.82;nan;99455.94;5040819;28;20068;-69
2024/01/25 11:21:48;;;;;;;233.40;105.97;;;;;;;11.80;nan;99449.16;5040118;28;20066;-70
2024/01/25 11:24:26;;;;;;;246.68;106.25;;;;;;;11.82;nan;99444.50;5045698;28;20369;-69
2024/01/25 11:26:55;;;;;;;235.57;107.22;;;;;;;11.73;nan;99445.59;5036461;28;20064;-70
2024/01/25 11:29:27;;;;;;;240.60;106.78;;;;;;;11.64;nan;99450.94;5072456;28;20048;-69
2024/01/25 11:31:56;;;;;;;240.25;107.82;;;;;;;11.72;nan;99455.41;5066318;28;20060;-69
2024/01/25 11:34:26;;;;;;;241.43;105.20;;;;;;;11.62;nan;99452.13;5065544;28;20476;-70
2024/01/25 11:36:57;;;;;;;233.95;102.60;;;;;;;11.61;nan;99456.63;5049388;28;20619;-69
2024/01/25 11:39:27;;;;;;;227.55;104.35;;;;;;;11.55;nan;99459.19;5066031;28;20126;-69
2024/01/25 11:41:56;;;;;;;233.55;103.90;;;;;;;11.63;nan;99454.63;5071637;28;20456;-69
2024/01/25 11:44:28;;;;;;;246.07;104.32;;;;;;;11.51;nan;99460.50;5076130;28;20056;-69